sensor_id;sensor_type;location;lat;lon;timestamp;temperature;humidity
25188;DHT22;13141;50.414;8.050;2023-11-18T00:00:10;5.90;99.90
25188;DHT22;13141;50.414;8.050;2023-11-18T00:02:37;5.90;99.90
25188;DHT22;13141;50.414;8.050;2023-11-18T00:05:03;5.90;99.90
25188;DHT22;13141;50.414;8.050;2023-11-18T00:07:28;5.90;99.90
25188;DHT22;13141;50.414;8.050;2023-11-18T00:09:54;5.90;99.90
25188;DHT22;13141;50.414;8.050;2023-11-18T00:12:20;5.90;99.90
25188;DHT22;13141;50.414;8.050;2023-11-18T00:14:45;5.80;99.90
25188;DHT22;13141;50.414;8.050;2023-11-18T00:17:11;5.80;99.90
25188;DHT22;13141;50.414;8.050;2023-11-18T00:19:38;5.90;99.90
25188;DHT22;13141;50.414;8.050;2023-11-18T00:22:04;5.80;99.90
25188;DHT22;13141;50.414;8.050;2023-11-18T00:24:30;5.80;99.90
25188;DHT22;13141;50.414;8.050;2023-11-18T00:26:55;5.80;99.90
25188;DHT22;13141;50.414;8.050;2023-11-18T00:29:21;5.80;99.90
25188;DHT22;13141;50.414;8.050;2023-11-18T00:31:46;5.80;99.90
25188;DHT22;13141;50.414;8.050;2023-11-18T00:34:12;5.80;99.90
25188;DHT22;13141;50.414;8.050;2023-11-18T00:36:39;5.80;99.90
25188;DHT22;13141;50.414;8.050;2023-11-18T00:39:05;5.80;99.90
25188;DHT22;13141;50.414;8.050;2023-11-18T00:41:30;5.80;99.90
25188;DHT22;13141;50.414;8.050;2023-11-18T00:43:56;5.80;99.90
25188;DHT22;13141;50.414;8.050;2023-11-18T00:46:22;5.80;99.90
25188;DHT22;13141;50.414;8.050;2023-11-18T00:48:47;5.70;99.90
25188;DHT22;13141;50.414;8.050;2023-11-18T00:51:13;5.70;99.90
25188;DHT22;13141;50.414;8.050;2023-11-18T00:53:40;5.70;99.90
25188;DHT22;13141;50.414;8.050;2023-11-18T00:56:06;5.70;99.90
25188;DHT22;13141;50.414;8.050;2023-11-18T00:58:32;5.80;99.90
25188;DHT22;13141;50.414;8.050;2023-11-18T01:00:57;5.80;99.90
25188;DHT22;13141;50.414;8.050;2023-11-18T01:03:23;5.80;99.90
25188;DHT22;13141;50.414;8.050;2023-11-18T01:05:49;5.80;99.90
25188;DHT22;13141;50.414;8.050;2023-11-18T01:08:14;5.80;99.90
25188;DHT22;13141;50.414;8.050;2023-11-18T01:10:41;5.80;99.90
25188;DHT22;13141;50.414;8.050;2023-11-18T01:13:07;5.70;99.90
25188;DHT22;13141;50.414;8.050;2023-11-18T01:15:32;5.70;99.90
25188;DHT22;13141;50.414;8.050;2023-11-18T01:17:58;5.70;99.90
25188;DHT22;13141;50.414;8.050;2023-11-18T01:20:24;5.70;99.90
25188;DHT22;13141;50.414;8.050;2023-11-18T01:22:50;5.70;99.90
25188;DHT22;13141;50.414;8.050;2023-11-18T01:25:16;5.70;99.90
25188;DHT22;13141;50.414;8.050;2023-11-18T01:27:43;5.70;99.90
25188;DHT22;13141;50.414;8.050;2023-11-18T01:30:09;5.70;99.90
25188;DHT22;13141;50.414;8.050;2023-11-18T01:32:35;5.60;99.90
25188;DHT22;13141;50.414;8.050;2023-11-18T01:35:01;5.60;99.90
25188;DHT22;13141;50.414;8.050;2023-11-18T01:37:26;5.60;99.90
25188;DHT22;13141;50.414;8.050;2023-11-18T01:39:52;5.60;99.90
25188;DHT22;13141;50.414;8.050;2023-11-18T01:42:18;5.60;99.90
25188;DHT22;13141;50.414;8.050;2023-11-18T01:44:45;5.60;99.90
25188;DHT22;13141;50.414;8.050;2023-11-18T01:47:11;5.60;99.90
25188;DHT22;13141;50.414;8.050;2023-11-18T01:49:38;5.60;99.90
25188;DHT22;13141;50.414;8.050;2023-11-18T01:52:05;5.70;99.90
25188;DHT22;13141;50.414;8.050;2023-11-18T01:54:30;5.60;99.90
25188;DHT22;13141;50.414;8.050;2023-11-18T01:56:57;5.60;99.90
25188;DHT22;13141;50.414;8.050;2023-11-18T01:59:22;5.60;99.90
25188;DHT22;13141;50.414;8.050;2023-11-18T02:01:50;5.60;99.90
25188;DHT22;13141;50.414;8.050;2023-11-18T02:04:17;5.60;99.90
25188;DHT22;13141;50.414;8.050;2023-11-18T02:06:43;5.60;99.90
25188;DHT22;13141;50.414;8.050;2023-11-18T02:09:09;5.60;99.90
25188;DHT22;13141;50.414;8.050;2023-11-18T02:11:37;5.60;99.90
25188;DHT22;13141;50.414;8.050;2023-11-18T02:14:05;5.50;99.90
25188;DHT22;13141;50.414;8.050;2023-11-18T02:16:32;5.50;99.90
25188;DHT22;13141;50.414;8.050;2023-11-18T02:19:00;5.50;99.90
25188;DHT22;13141;50.414;8.050;2023-11-18T02:21:27;5.50;99.90
25188;DHT22;13141;50.414;8.050;2023-11-18T02:23:55;5.50;99.90
25188;DHT22;13141;50.414;8.050;2023-11-18T02:26:22;5.50;99.90
25188;DHT22;13141;50.414;8.050;2023-11-18T02:28:48;5.50;99.90
25188;DHT22;13141;50.414;8.050;2023-11-18T02:31:22;5.50;99.90
25188;DHT22;13141;50.414;8.050;2023-11-18T02:33:53;5.50;99.90
25188;DHT22;13141;50.414;8.050;2023-11-18T02:36:25;5.50;99.90
25188;DHT22;13141;50.414;8.050;2023-11-18T02:38:53;5.50;99.90
25188;DHT22;13141;50.414;8.050;2023-11-18T02:41:22;5.50;99.90
25188;DHT22;13141;50.414;8.050;2023-11-18T02:43:50;5.50;99.90
25188;DHT22;13141;50.414;8.050;2023-11-18T02:46:16;5.40;99.90
25188;DHT22;13141;50.414;8.050;2023-11-18T02:48:42;5.40;99.90
25188;DHT22;13141;50.414;8.050;2023-11-18T02:51:09;5.40;99.90
25188;DHT22;13141;50.414;8.050;2023-11-18T02:53:34;5.40;99.90
25188;DHT22;13141;50.414;8.050;2023-11-18T02:56:00;5.40;99.90
25188;DHT22;13141;50.414;8.050;2023-11-18T02:58:27;5.40;99.90
25188;DHT22;13141;50.414;8.050;2023-11-18T03:00:53;5.40;99.90
25188;DHT22;13141;50.414;8.050;2023-11-18T03:03:19;5.40;99.90
25188;DHT22;13141;50.414;8.050;2023-11-18T03:05:44;5.40;99.90
25188;DHT22;13141;50.414;8.050;2023-11-18T03:08:10;5.40;99.90
25188;DHT22;13141;50.414;8.050;2023-11-18T03:10:36;5.50;99.90
25188;DHT22;13141;50.414;8.050;2023-11-18T03:13:01;5.50;99.90
25188;DHT22;13141;50.414;8.050;2023-11-18T03:15:29;5.50;99.90
25188;DHT22;13141;50.414;8.050;2023-11-18T03:17:55;5.50;99.90
25188;DHT22;13141;50.414;8.050;2023-11-18T03:20:22;5.50;99.90
25188;DHT22;13141;50.414;8.050;2023-11-18T03:22:48;5.50;99.90
25188;DHT22;13141;50.414;8.050;2023-11-18T03:25:14;5.40;99.90
25188;DHT22;13141;50.414;8.050;2023-11-18T03:27:40;5.40;99.90
25188;DHT22;13141;50.414;8.050;2023-11-18T03:30:07;5.40;99.90
25188;DHT22;13141;50.414;8.050;2023-11-18T03:32:34;5.40;99.90
25188;DHT22;13141;50.414;8.050;2023-11-18T03:35:00;5.40;99.90
25188;DHT22;13141;50.414;8.050;2023-11-18T03:37:25;5.40;99.90
25188;DHT22;13141;50.414;8.050;2023-11-18T03:39:51;5.40;99.90
25188;DHT22;13141;50.414;8.050;2023-11-18T03:42:17;5.40;99.90
25188;DHT22;13141;50.414;8.050;2023-11-18T03:44:43;5.40;99.90
25188;DHT22;13141;50.414;8.050;2023-11-18T03:47:08;5.30;99.90
25188;DHT22;13141;50.414;8.050;2023-11-18T03:49:36;5.30;99.90
25188;DHT22;13141;50.414;8.050;2023-11-18T03:52:01;5.30;99.90
25188;DHT22;13141;50.414;8.050;2023-11-18T03:54:27;5.30;99.90
25188;DHT22;13141;50.414;8.050;2023-11-18T03:56:52;5.40;99.90
25188;DHT22;13141;50.414;8.050;2023-11-18T03:59:18;5.40;99.90
25188;DHT22;13141;50.414;8.050;2023-11-18T04:01:44;5.40;99.90
25188;DHT22;13141;50.414;8.050;2023-11-18T04:04:10;5.30;99.90
25188;DHT22;13141;50.414;8.050;2023-11-18T04:06:37;5.30;99.90
25188;DHT22;13141;50.414;8.050;2023-11-18T04:09:02;5.30;99.90
25188;DHT22;13141;50.414;8.050;2023-11-18T04:11:28;5.30;99.90
25188;DHT22;13141;50.414;8.050;2023-11-18T04:13:54;5.40;99.90
25188;DHT22;13141;50.414;8.050;2023-11-18T04:16:19;5.50;99.90
25188;DHT22;13141;50.414;8.050;2023-11-18T04:18:45;5.40;99.90
25188;DHT22;13141;50.414;8.050;2023-11-18T04:21:12;5.40;99.90
25188;DHT22;13141;50.414;8.050;2023-11-18T04:23:41;5.40;99.90
25188;DHT22;13141;50.414;8.050;2023-11-18T04:26:08;5.40;99.90
25188;DHT22;13141;50.414;8.050;2023-11-18T04:28:33;5.40;99.90
25188;DHT22;13141;50.414;8.050;2023-11-18T04:31:00;5.40;99.90
25188;DHT22;13141;50.414;8.050;2023-11-18T04:33:25;5.40;99.90
25188;DHT22;13141;50.414;8.050;2023-11-18T04:35:51;5.40;99.90
25188;DHT22;13141;50.414;8.050;2023-11-18T04:38:17;5.40;99.90
25188;DHT22;13141;50.414;8.050;2023-11-18T04:40:44;5.40;99.90
25188;DHT22;13141;50.414;8.050;2023-11-18T04:43:10;5.40;99.90
25188;DHT22;13141;50.414;8.050;2023-11-18T04:45:35;5.40;99.90
25188;DHT22;13141;50.414;8.050;2023-11-18T04:48:01;5.30;99.90
25188;DHT22;13141;50.414;8.050;2023-11-18T04:50:27;5.30;99.90
25188;DHT22;13141;50.414;8.050;2023-11-18T04:52:52;5.50;99.90
25188;DHT22;13141;50.414;8.050;2023-11-18T04:55:18;5.30;99.90
25188;DHT22;13141;50.414;8.050;2023-11-18T04:57:45;5.20;99.90
25188;DHT22;13141;50.414;8.050;2023-11-18T05:00:12;5.30;99.90
25188;DHT22;13141;50.414;8.050;2023-11-18T05:02:38;5.30;99.90
25188;DHT22;13141;50.414;8.050;2023-11-18T05:05:04;5.20;99.90
25188;DHT22;13141;50.414;8.050;2023-11-18T05:07:30;5.20;99.90
25188;DHT22;13141;50.414;8.050;2023-11-18T05:09:55;5.20;99.90
25188;DHT22;13141;50.414;8.050;2023-11-18T05:12:21;5.20;99.90
25188;DHT22;13141;50.414;8.050;2023-11-18T05:14:48;5.20;99.90
25188;DHT22;13141;50.414;8.050;2023-11-18T05:17:13;5.20;99.90
25188;DHT22;13141;50.414;8.050;2023-11-18T05:19:39;5.20;99.90
25188;DHT22;13141;50.414;8.050;2023-11-18T05:22:05;5.20;99.90
25188;DHT22;13141;50.414;8.050;2023-11-18T05:24:31;5.20;99.90
25188;DHT22;13141;50.414;8.050;2023-11-18T05:26:56;5.20;99.90
25188;DHT22;13141;50.414;8.050;2023-11-18T05:29:22;5.20;99.90
25188;DHT22;13141;50.414;8.050;2023-11-18T05:31:50;5.10;99.90
25188;DHT22;13141;50.414;8.050;2023-11-18T05:34:16;5.10;99.90
25188;DHT22;13141;50.414;8.050;2023-11-18T05:36:43;5.10;99.90
25188;DHT22;13141;50.414;8.050;2023-11-18T05:39:08;5.10;99.90
25188;DHT22;13141;50.414;8.050;2023-11-18T05:41:34;5.10;99.90
25188;DHT22;13141;50.414;8.050;2023-11-18T05:44:00;5.10;99.90
25188;DHT22;13141;50.414;8.050;2023-11-18T05:46:26;5.20;99.90
25188;DHT22;13141;50.414;8.050;2023-11-18T05:48:53;5.20;99.90
25188;DHT22;13141;50.414;8.050;2023-11-18T05:51:20;5.20;99.90
25188;DHT22;13141;50.414;8.050;2023-11-18T05:53:45;5.20;99.90
25188;DHT22;13141;50.414;8.050;2023-11-18T05:56:11;5.20;99.90
25188;DHT22;13141;50.414;8.050;2023-11-18T05:58:37;5.20;99.90
25188;DHT22;13141;50.414;8.050;2023-11-18T06:01:03;5.20;99.90
25188;DHT22;13141;50.414;8.050;2023-11-18T06:03:29;5.20;99.90
25188;DHT22;13141;50.414;8.050;2023-11-18T06:05:56;5.20;99.90
25188;DHT22;13141;50.414;8.050;2023-11-18T06:08:22;5.20;99.90
25188;DHT22;13141;50.414;8.050;2023-11-18T06:10:47;5.20;99.90
25188;DHT22;13141;50.414;8.050;2023-11-18T06:13:13;5.20;99.90
25188;DHT22;13141;50.414;8.050;2023-11-18T06:15:39;5.20;99.90
25188;DHT22;13141;50.414;8.050;2023-11-18T06:18:05;5.20;99.90
25188;DHT22;13141;50.414;8.050;2023-11-18T06:20:31;5.20;99.90
25188;DHT22;13141;50.414;8.050;2023-11-18T06:23:00;5.20;99.90
25188;DHT22;13141;50.414;8.050;2023-11-18T06:25:25;5.20;99.90
25188;DHT22;13141;50.414;8.050;2023-11-18T06:27:51;5.20;99.90
25188;DHT22;13141;50.414;8.050;2023-11-18T06:30:17;5.20;99.90
25188;DHT22;13141;50.414;8.050;2023-11-18T06:32:43;5.20;99.90
25188;DHT22;13141;50.414;8.050;2023-11-18T06:35:08;5.20;99.90
25188;DHT22;13141;50.414;8.050;2023-11-18T06:37:34;5.20;99.90
25188;DHT22;13141;50.414;8.050;2023-11-18T06:40:01;5.20;99.90
25188;DHT22;13141;50.414;8.050;2023-11-18T06:42:27;5.20;99.90
25188;DHT22;13141;50.414;8.050;2023-11-18T06:44:53;5.20;99.90
25188;DHT22;13141;50.414;8.050;2023-11-18T06:47:18;5.20;99.90
25188;DHT22;13141;50.414;8.050;2023-11-18T06:49:44;5.20;99.90
25188;DHT22;13141;50.414;8.050;2023-11-18T06:52:10;5.20;99.90
25188;DHT22;13141;50.414;8.050;2023-11-18T06:54:35;5.30;99.90
25188;DHT22;13141;50.414;8.050;2023-11-18T06:57:03;5.20;99.90
25188;DHT22;13141;50.414;8.050;2023-11-18T06:59:29;5.20;99.90
25188;DHT22;13141;50.414;8.050;2023-11-18T07:01:55;5.30;99.90
25188;DHT22;13141;50.414;8.050;2023-11-18T07:04:20;5.30;99.90
25188;DHT22;13141;50.414;8.050;2023-11-18T07:06:46;5.20;99.90
25188;DHT22;13141;50.414;8.050;2023-11-18T07:09:12;5.40;99.90
25188;DHT22;13141;50.414;8.050;2023-11-18T07:11:38;5.40;99.90
25188;DHT22;13141;50.414;8.050;2023-11-18T07:14:05;5.40;99.90
25188;DHT22;13141;50.414;8.050;2023-11-18T07:16:30;5.40;99.90
25188;DHT22;13141;50.414;8.050;2023-11-18T07:18:56;5.40;99.90
25188;DHT22;13141;50.414;8.050;2023-11-18T07:21:22;5.40;99.90
25188;DHT22;13141;50.414;8.050;2023-11-18T07:23:47;5.40;99.90
25188;DHT22;13141;50.414;8.050;2023-11-18T07:26:13;5.40;99.90
25188;DHT22;13141;50.414;8.050;2023-11-18T07:28:39;5.40;99.90
25188;DHT22;13141;50.414;8.050;2023-11-18T07:31:06;5.50;99.90
25188;DHT22;13141;50.414;8.050;2023-11-18T07:33:32;5.50;99.90
25188;DHT22;13141;50.414;8.050;2023-11-18T07:35:58;5.50;99.90
25188;DHT22;13141;50.414;8.050;2023-11-18T07:38:24;5.50;99.90
25188;DHT22;13141;50.414;8.050;2023-11-18T07:40:50;5.60;99.90
25188;DHT22;13141;50.414;8.050;2023-11-18T07:43:16;5.60;99.90
25188;DHT22;13141;50.414;8.050;2023-11-18T07:45:41;5.60;99.90
25188;DHT22;13141;50.414;8.050;2023-11-18T07:48:09;5.50;99.90
25188;DHT22;13141;50.414;8.050;2023-11-18T07:50:36;5.50;99.90
25188;DHT22;13141;50.414;8.050;2023-11-18T07:53:02;5.60;99.90
25188;DHT22;13141;50.414;8.050;2023-11-18T07:55:27;5.50;99.90
25188;DHT22;13141;50.414;8.050;2023-11-18T07:57:53;5.60;99.90
25188;DHT22;13141;50.414;8.050;2023-11-18T08:00:19;5.60;99.90
25188;DHT22;13141;50.414;8.050;2023-11-18T08:02:45;5.60;99.90
25188;DHT22;13141;50.414;8.050;2023-11-18T08:05:12;5.60;99.90
25188;DHT22;13141;50.414;8.050;2023-11-18T08:07:38;5.60;99.90
25188;DHT22;13141;50.414;8.050;2023-11-18T08:10:04;5.60;99.90
25188;DHT22;13141;50.414;8.050;2023-11-18T08:12:31;5.70;99.90
25188;DHT22;13141;50.414;8.050;2023-11-18T08:14:56;5.60;99.90
25188;DHT22;13141;50.414;8.050;2023-11-18T08:17:22;5.70;99.90
25188;DHT22;13141;50.414;8.050;2023-11-18T08:19:48;5.70;99.90
25188;DHT22;13141;50.414;8.050;2023-11-18T08:22:15;5.70;99.90
25188;DHT22;13141;50.414;8.050;2023-11-18T08:24:41;5.70;99.90
25188;DHT22;13141;50.414;8.050;2023-11-18T08:27:06;5.80;99.90
25188;DHT22;13141;50.414;8.050;2023-11-18T08:29:32;5.80;99.90
25188;DHT22;13141;50.414;8.050;2023-11-18T08:31:58;5.80;99.90
25188;DHT22;13141;50.414;8.050;2023-11-18T08:34:24;5.80;99.90
25188;DHT22;13141;50.414;8.050;2023-11-18T08:36:50;5.80;99.90
25188;DHT22;13141;50.414;8.050;2023-11-18T08:39:17;5.80;99.90
25188;DHT22;13141;50.414;8.050;2023-11-18T08:41:43;5.90;99.90
25188;DHT22;13141;50.414;8.050;2023-11-18T08:44:09;5.90;99.90
25188;DHT22;13141;50.414;8.050;2023-11-18T08:46:34;5.90;99.90
25188;DHT22;13141;50.414;8.050;2023-11-18T08:49:00;5.90;99.90
25188;DHT22;13141;50.414;8.050;2023-11-18T08:51:26;6.10;99.90
25188;DHT22;13141;50.414;8.050;2023-11-18T08:53:51;5.90;99.90
25188;DHT22;13141;50.414;8.050;2023-11-18T08:56:18;5.90;99.90
25188;DHT22;13141;50.414;8.050;2023-11-18T08:58:44;5.90;99.90
25188;DHT22;13141;50.414;8.050;2023-11-18T09:01:10;6.00;99.90
25188;DHT22;13141;50.414;8.050;2023-11-18T09:03:36;6.00;99.90
25188;DHT22;13141;50.414;8.050;2023-11-18T09:06:04;6.30;99.90
25188;DHT22;13141;50.414;8.050;2023-11-18T09:08:31;6.10;99.90
25188;DHT22;13141;50.414;8.050;2023-11-18T09:10:58;6.10;99.90
25188;DHT22;13141;50.414;8.050;2023-11-18T09:13:26;6.20;99.90
25188;DHT22;13141;50.414;8.050;2023-11-18T09:15:51;6.20;99.90
25188;DHT22;13141;50.414;8.050;2023-11-18T09:18:17;6.20;99.90
25188;DHT22;13141;50.414;8.050;2023-11-18T09:20:43;6.30;99.90
25188;DHT22;13141;50.414;8.050;2023-11-18T09:23:09;6.40;99.90
25188;DHT22;13141;50.414;8.050;2023-11-18T09:25:34;6.40;99.90
25188;DHT22;13141;50.414;8.050;2023-11-18T09:28:00;6.50;99.90
25188;DHT22;13141;50.414;8.050;2023-11-18T09:30:28;6.50;99.90
25188;DHT22;13141;50.414;8.050;2023-11-18T09:32:53;6.50;99.90
25188;DHT22;13141;50.414;8.050;2023-11-18T09:35:19;6.50;99.90
25188;DHT22;13141;50.414;8.050;2023-11-18T09:37:45;6.60;99.90
25188;DHT22;13141;50.414;8.050;2023-11-18T09:40:13;6.60;99.90
25188;DHT22;13141;50.414;8.050;2023-11-18T09:42:39;6.60;99.90
25188;DHT22;13141;50.414;8.050;2023-11-18T09:45:06;6.60;99.90
25188;DHT22;13141;50.414;8.050;2023-11-18T09:47:36;6.60;99.90
25188;DHT22;13141;50.414;8.050;2023-11-18T09:50:02;6.70;99.90
25188;DHT22;13141;50.414;8.050;2023-11-18T09:52:31;6.70;99.90
25188;DHT22;13141;50.414;8.050;2023-11-18T09:55:02;6.70;99.90
25188;DHT22;13141;50.414;8.050;2023-11-18T09:57:32;6.80;99.90
25188;DHT22;13141;50.414;8.050;2023-11-18T10:00:01;6.80;99.90
25188;DHT22;13141;50.414;8.050;2023-11-18T10:02:29;6.80;99.90
25188;DHT22;13141;50.414;8.050;2023-11-18T10:04:58;6.90;99.90
25188;DHT22;13141;50.414;8.050;2023-11-18T10:07:26;6.90;99.90
25188;DHT22;13141;50.414;8.050;2023-11-18T10:09:54;6.90;99.90
25188;DHT22;13141;50.414;8.050;2023-11-18T10:12:20;7.00;99.90
25188;DHT22;13141;50.414;8.050;2023-11-18T10:14:45;7.00;99.90
25188;DHT22;13141;50.414;8.050;2023-11-18T10:17:11;7.10;99.90
25188;DHT22;13141;50.414;8.050;2023-11-18T10:19:50;7.10;99.90
25188;DHT22;13141;50.414;8.050;2023-11-18T10:22:21;7.20;99.90
25188;DHT22;13141;50.414;8.050;2023-11-18T10:24:47;7.30;99.90
25188;DHT22;13141;50.414;8.050;2023-11-18T10:27:14;7.30;99.90
25188;DHT22;13141;50.414;8.050;2023-11-18T10:29:40;7.30;99.90
25188;DHT22;13141;50.414;8.050;2023-11-18T10:32:07;7.40;99.90
25188;DHT22;13141;50.414;8.050;2023-11-18T10:34:33;7.40;99.90
25188;DHT22;13141;50.414;8.050;2023-11-18T10:37:00;7.50;99.90
25188;DHT22;13141;50.414;8.050;2023-11-18T10:39:29;7.50;99.90
25188;DHT22;13141;50.414;8.050;2023-11-18T10:41:58;7.50;99.90
25188;DHT22;13141;50.414;8.050;2023-11-18T10:44:24;7.40;99.90
25188;DHT22;13141;50.414;8.050;2023-11-18T10:46:54;7.40;99.90
25188;DHT22;13141;50.414;8.050;2023-11-18T10:49:20;7.40;99.90
25188;DHT22;13141;50.414;8.050;2023-11-18T10:51:46;7.40;99.90
25188;DHT22;13141;50.414;8.050;2023-11-18T10:54:12;7.40;99.90
25188;DHT22;13141;50.414;8.050;2023-11-18T10:56:46;7.40;99.90
25188;DHT22;13141;50.414;8.050;2023-11-18T10:59:12;7.50;99.90
25188;DHT22;13141;50.414;8.050;2023-11-18T11:01:38;7.50;99.90
25188;DHT22;13141;50.414;8.050;2023-11-18T11:04:04;7.50;99.90
25188;DHT22;13141;50.414;8.050;2023-11-18T11:06:30;7.50;99.90
25188;DHT22;13141;50.414;8.050;2023-11-18T11:08:57;7.60;99.90
25188;DHT22;13141;50.414;8.050;2023-11-18T11:11:24;7.60;99.90
25188;DHT22;13141;50.414;8.050;2023-11-18T11:13:54;7.60;99.90
25188;DHT22;13141;50.414;8.050;2023-11-18T11:16:23;7.70;99.90
25188;DHT22;13141;50.414;8.050;2023-11-18T11:18:55;7.70;99.90
25188;DHT22;13141;50.414;8.050;2023-11-18T11:21:25;7.80;99.90
25188;DHT22;13141;50.414;8.050;2023-11-18T11:23:54;7.80;99.90
25188;DHT22;13141;50.414;8.050;2023-11-18T11:26:28;7.80;99.90
25188;DHT22;13141;50.414;8.050;2023-11-18T11:29:04;7.80;99.90
25188;DHT22;13141;50.414;8.050;2023-11-18T11:31:37;7.90;99.90
25188;DHT22;13141;50.414;8.050;2023-11-18T11:34:05;7.90;99.90
25188;DHT22;13141;50.414;8.050;2023-11-18T11:36:37;7.90;99.90
25188;DHT22;13141;50.414;8.050;2023-11-18T11:39:02;7.90;99.90
25188;DHT22;13141;50.414;8.050;2023-11-18T11:41:28;7.90;99.90
25188;DHT22;13141;50.414;8.050;2023-11-18T11:43:55;7.90;99.90
25188;DHT22;13141;50.414;8.050;2023-11-18T11:46:23;7.90;99.90
25188;DHT22;13141;50.414;8.050;2023-11-18T11:48:51;7.90;99.90
25188;DHT22;13141;50.414;8.050;2023-11-18T11:51:22;7.90;99.90
25188;DHT22;13141;50.414;8.050;2023-11-18T11:53:57;7.90;99.90
25188;DHT22;13141;50.414;8.050;2023-11-18T11:56:38;8.00;99.90
25188;DHT22;13141;50.414;8.050;2023-11-18T11:59:04;8.00;99.90
25188;DHT22;13141;50.414;8.050;2023-11-18T12:01:36;8.00;99.90
25188;DHT22;13141;50.414;8.050;2023-11-18T12:04:03;8.10;99.90
25188;DHT22;13141;50.414;8.050;2023-11-18T12:06:29;8.10;99.90
25188;DHT22;13141;50.414;8.050;2023-11-18T12:08:56;8.10;99.90
25188;DHT22;13141;50.414;8.050;2023-11-18T12:11:22;8.20;99.90
25188;DHT22;13141;50.414;8.050;2023-11-18T12:14:01;8.10;99.90
25188;DHT22;13141;50.414;8.050;2023-11-18T12:16:57;8.10;99.90
25188;DHT22;13141;50.414;8.050;2023-11-18T12:19:30;8.20;99.90
25188;DHT22;13141;50.414;8.050;2023-11-18T12:21:55;8.20;99.90
25188;DHT22;13141;50.414;8.050;2023-11-18T12:24:21;8.20;99.90
25188;DHT22;13141;50.414;8.050;2023-11-18T12:26:47;8.20;99.90
25188;DHT22;13141;50.414;8.050;2023-11-18T12:29:31;8.20;99.90
25188;DHT22;13141;50.414;8.050;2023-11-18T12:31:58;8.20;99.90
25188;DHT22;13141;50.414;8.050;2023-11-18T12:34:23;8.20;99.90
25188;DHT22;13141;50.414;8.050;2023-11-18T12:37:17;8.20;99.90
25188;DHT22;13141;50.414;8.050;2023-11-18T12:40:23;8.20;99.90
25188;DHT22;13141;50.414;8.050;2023-11-18T12:43:00;8.30;99.90
25188;DHT22;13141;50.414;8.050;2023-11-18T12:45:42;8.30;99.90
25188;DHT22;13141;50.414;8.050;2023-11-18T12:48:14;8.30;99.90
25188;DHT22;13141;50.414;8.050;2023-11-18T12:50:41;8.30;99.90
25188;DHT22;13141;50.414;8.050;2023-11-18T12:53:06;8.30;99.90
25188;DHT22;13141;50.414;8.050;2023-11-18T12:55:32;8.30;99.90
25188;DHT22;13141;50.414;8.050;2023-11-18T12:57:59;8.40;99.90
25188;DHT22;13141;50.414;8.050;2023-11-18T13:00:25;8.40;99.90
25188;DHT22;13141;50.414;8.050;2023-11-18T13:02:50;8.40;99.90
25188;DHT22;13141;50.414;8.050;2023-11-18T13:05:17;8.30;99.90
25188;DHT22;13141;50.414;8.050;2023-11-18T13:07:43;8.20;99.90
25188;DHT22;13141;50.414;8.050;2023-11-18T13:10:09;8.10;99.90
25188;DHT22;13141;50.414;8.050;2023-11-18T13:12:35;8.00;99.90
25188;DHT22;13141;50.414;8.050;2023-11-18T13:15:00;7.90;99.90
25188;DHT22;13141;50.414;8.050;2023-11-18T13:17:26;8.10;99.90
25188;DHT22;13141;50.414;8.050;2023-11-18T13:19:52;8.00;99.90
25188;DHT22;13141;50.414;8.050;2023-11-18T13:22:19;8.00;99.90
25188;DHT22;13141;50.414;8.050;2023-11-18T13:24:44;8.10;99.90
25188;DHT22;13141;50.414;8.050;2023-11-18T13:27:13;8.10;99.90
25188;DHT22;13141;50.414;8.050;2023-11-18T13:29:38;8.10;99.90
25188;DHT22;13141;50.414;8.050;2023-11-18T13:32:05;8.10;99.90
25188;DHT22;13141;50.414;8.050;2023-11-18T13:34:31;8.10;99.90
25188;DHT22;13141;50.414;8.050;2023-11-18T13:36:57;8.00;99.90
25188;DHT22;13141;50.414;8.050;2023-11-18T13:39:24;8.00;99.90
25188;DHT22;13141;50.414;8.050;2023-11-18T13:41:50;8.00;99.90
25188;DHT22;13141;50.414;8.050;2023-11-18T13:44:31;7.90;99.90
25188;DHT22;13141;50.414;8.050;2023-11-18T13:46:58;8.10;99.90
25188;DHT22;13141;50.414;8.050;2023-11-18T13:49:27;8.10;99.90
25188;DHT22;13141;50.414;8.050;2023-11-18T13:51:53;8.10;99.90
25188;DHT22;13141;50.414;8.050;2023-11-18T13:54:19;8.00;99.90
25188;DHT22;13141;50.414;8.050;2023-11-18T13:56:47;8.00;99.90
25188;DHT22;13141;50.414;8.050;2023-11-18T13:59:12;8.00;99.90
25188;DHT22;13141;50.414;8.050;2023-11-18T14:01:38;8.00;99.90
25188;DHT22;13141;50.414;8.050;2023-11-18T14:04:05;8.00;99.90
25188;DHT22;13141;50.414;8.050;2023-11-18T14:06:31;8.00;99.90
25188;DHT22;13141;50.414;8.050;2023-11-18T14:08:56;8.00;99.90
25188;DHT22;13141;50.414;8.050;2023-11-18T14:11:22;8.00;99.90
25188;DHT22;13141;50.414;8.050;2023-11-18T14:13:49;8.00;99.90
25188;DHT22;13141;50.414;8.050;2023-11-18T14:16:18;8.20;99.90
25188;DHT22;13141;50.414;8.050;2023-11-18T14:18:43;8.10;99.90
25188;DHT22;13141;50.414;8.050;2023-11-18T14:21:09;8.10;99.90
25188;DHT22;13141;50.414;8.050;2023-11-18T14:23:35;8.10;99.90
25188;DHT22;13141;50.414;8.050;2023-11-18T14:26:00;8.10;99.90
25188;DHT22;13141;50.414;8.050;2023-11-18T14:28:26;8.20;99.90
25188;DHT22;13141;50.414;8.050;2023-11-18T14:30:53;8.20;99.90
25188;DHT22;13141;50.414;8.050;2023-11-18T14:33:19;8.20;99.90
25188;DHT22;13141;50.414;8.050;2023-11-18T14:35:45;8.20;99.90
25188;DHT22;13141;50.414;8.050;2023-11-18T14:38:11;8.20;99.90
25188;DHT22;13141;50.414;8.050;2023-11-18T14:40:37;8.20;99.90
25188;DHT22;13141;50.414;8.050;2023-11-18T14:43:03;8.20;99.90
25188;DHT22;13141;50.414;8.050;2023-11-18T14:45:28;8.20;99.90
25188;DHT22;13141;50.414;8.050;2023-11-18T14:47:55;8.30;99.90
25188;DHT22;13141;50.414;8.050;2023-11-18T14:50:21;8.40;99.90
25188;DHT22;13141;50.414;8.050;2023-11-18T14:52:47;8.10;99.90
25188;DHT22;13141;50.414;8.050;2023-11-18T14:55:13;8.10;99.90
25188;DHT22;13141;50.414;8.050;2023-11-18T14:57:40;8.10;99.90
25188;DHT22;13141;50.414;8.050;2023-11-18T15:00:07;8.00;99.90
25188;DHT22;13141;50.414;8.050;2023-11-18T15:02:33;8.00;99.90
25188;DHT22;13141;50.414;8.050;2023-11-18T15:05:00;8.00;99.90
25188;DHT22;13141;50.414;8.050;2023-11-18T15:07:26;8.10;99.90
25188;DHT22;13141;50.414;8.050;2023-11-18T15:09:52;8.00;99.90
25188;DHT22;13141;50.414;8.050;2023-11-18T15:12:17;8.10;99.90
25188;DHT22;13141;50.414;8.050;2023-11-18T15:14:43;8.10;99.90
25188;DHT22;13141;50.414;8.050;2023-11-18T15:17:09;8.10;99.90
25188;DHT22;13141;50.414;8.050;2023-11-18T15:19:34;8.20;99.90
25188;DHT22;13141;50.414;8.050;2023-11-18T15:22:02;8.20;99.90
25188;DHT22;13141;50.414;8.050;2023-11-18T15:24:27;8.20;99.90
25188;DHT22;13141;50.414;8.050;2023-11-18T15:26:53;8.20;99.90
25188;DHT22;13141;50.414;8.050;2023-11-18T15:29:18;8.20;99.90
25188;DHT22;13141;50.414;8.050;2023-11-18T15:31:44;8.20;99.90
25188;DHT22;13141;50.414;8.050;2023-11-18T15:34:10;8.20;99.90
25188;DHT22;13141;50.414;8.050;2023-11-18T15:36:41;8.20;99.90
25188;DHT22;13141;50.414;8.050;2023-11-18T15:39:08;8.30;99.90
25188;DHT22;13141;50.414;8.050;2023-11-18T15:41:33;8.20;99.90